Kathleen, GA

6:38 AM EDT on July 23, 2014 (GMT -0400)
Eastpoint Plantation (KGAKATHL2) Elev 335 ft | 32.51 °N, 83.65 °W | Change Station

Current weather conditions updated 5 seconds ago

Overcast
Overcast
69.3 °F
Feels Like 69.3 °F
N
0.0
Wind Variable Wind from SE
Gusts 0.0 mph

Today is forecast to be Warmer than yesterday.

Today
High -- | Low -- °F
--% Chance of Precip.
Yesterday
High -- | Low -- °F
Precip. -- in
6:42 AM 8:38 PM
Waning Crescent, 11% visible
Pressure 30.07 in
Visibility 10.0 miles
Clouds Clear
Dew Point 69 °F
Humidity 99%
Rainfall 0.00 in
Snow Depth Not available.
UV 0 out of 12
Pollen 2.70 out of 12
Air Quality Not available.
Flu Activity Not available.
METAR KWRB 230958Z AUTO 00000KT 10SM CLR 22/22 A3007 RMK AO2 SLP182 T02170215

More Conditions Fewer Conditions

Pressure 30.07 in
Visibility 10.0 miles
Clouds Clear
Dew Point 69 °F
Humidity 99%
Rainfall 0.00 in
Snow Depth Not available.
UV 0 out of 12
Pollen 2.70 out of 12
Air Quality Not available.
Flu Activity Not available.
METAR KWRB 230958Z AUTO 00000KT 10SM CLR 22/22 A3007 RMK AO2 SLP182 T02170215

More Conditions Fewer Conditions

10-Day Weather Forecast

Almanac

Astronomy

Jul. 23, 2014 Rise Set
Actual Time 6:42 AM EDT 8:38 PM EDT
Civil Twilight 6:15 AM EDT 9:06 PM EDT
Nautical Twilight 5:42 AM EDT 9:39 PM EDT
Astronomical Twilight 5:06 AM EDT 10:14 PM EDT
Moon 3:59 AM EDT 6:07 PM EDT
Length of Visible Light 14h 50m
Length of Day
13h 55m
Tomorrow will be 1m 16s shorter.
Waning Crescent, 11% of the Moon is Illuminated
Today
Waning Crescent
Jul 26
New
Aug 3
First Quarter
Aug 10
Full
Aug 17
Last Quarter

Today's Extremes

State Highs State Lows

Community

WunderPhotos

Upload Photos

1,736,556 photos uploaded!

Nearby

Snow Depth

Station Depth Elevation
No new snow has been reported.

Earthquake Activity

City Distance Mag. Time & Date
No recent earthquake activity has been reported nearby.
Minimum magnitude displayed is 2.5.

Coastal Water Temperatures

Place Temperature
No Stations Reporting

Nearby Weather Stations

Station Location Temp. Dew Point Humidity Wind Precip. Elev Updated Type
Eastpoint Plantation, Kathleen, GA 69.3 °F 69 °F 99% SE  at  0.0 mph 0.00 in / hr 335 ft 6:38 AM EDT Rapid Fire
Lake Joy Village, Perry, GA 70.5 °F 67 °F 89% SSE  at  0.0 mph 0.00 in / hr 351 ft 6:38 AM EDT Rapid Fire
Downtown, Perry, GA 71.6 °F 71 °F 99% ESE  at  0.0 mph - / hr 364 ft 6:34 AM EDT Normal
Centerville, GA 69.7 °F 69 °F 98% SE  at  0.0 mph 0.00 in / hr 450 ft 6:32 AM EDT Normal
WA4RG, Fort Valley, GA 70.5 °F 70 °F 98% NW  at  0.0 mph 0.00 in / hr 538 ft 6:38 AM EDT Rapid Fire
Rocky Creek WWTP, Macon, GA 71.9 °F 72 °F 99% NNE  at  0.0 mph 0.00 in / hr 322 ft 6:35 AM EDT Normal
Mercer University, Macon, GA 70.8 °F 70 °F 96% East  at  2.0 mph 0.00 in / hr 430 ft 6:38 AM EDT Rapid Fire
Pierce Ave (Hwy 247), Macon, GA 69.7 °F 70 °F 100% SW  at  0.0 mph 0.00 in / hr 375 ft 6:35 AM EDT Normal

Show More Stations Show Fewer Stations